Time;durP1;ratioP1;P1;durP2;ratioP2;P2;SDS_P1;SDS_P2;PMS_P1;PMS_P2;Temp;Humidity;BMP_temperature;BMP_pressure;BME280_temperature;BME280_humidity;BME280_pressure;Samples;Min_cycle;Max_cycle;Signal;HPM_P1;HPM_P2
2022/07/31 00:01:37;;;;;;;3.90;2.10;;;22.20;99.90;;;;;;5095144;28;20522;-80
2022/07/31 00:04:04;;;;;;;2.90;1.80;;;22.20;99.90;;;;;;5097153;28;20431;-81
2022/07/31 00:06:31;;;;;;;6.77;2.00;;;22.20;99.90;;;;;;5080263;28;20451;-81
2022/07/31 00:08:58;;;;;;;3.20;1.60;;;22.10;99.90;;;;;;5077571;28;20458;-81
2022/07/31 00:11:25;;;;;;;4.90;2.00;;;22.10;99.90;;;;;;5077594;28;20907;-81
2022/07/31 00:13:52;;;;;;;3.43;1.60;;;22.00;99.90;;;;;;5077165;28;20959;-81
2022/07/31 00:16:19;;;;;;;5.47;2.10;;;21.80;99.90;;;;;;5077372;28;21002;-81
2022/07/31 00:18:47;;;;;;;4.37;2.13;;;21.90;99.90;;;;;;5078062;28;20986;-81
2022/07/31 00:21:14;;;;;;;5.17;2.17;;;21.90;99.90;;;;;;5077190;28;20466;-80
2022/07/31 00:23:40;;;;;;;6.10;1.90;;;21.80;99.90;;;;;;5091547;28;20492;-81
2022/07/31 00:26:07;;;;;;;4.20;1.90;;;21.90;99.90;;;;;;5083295;28;20486;-81
2022/07/31 00:28:34;;;;;;;3.33;1.83;;;21.90;99.90;;;;;;5078555;28;20510;-80
2022/07/31 00:31:01;;;;;;;4.30;2.07;;;21.80;99.90;;;;;;5076005;28;20483;-80
2022/07/31 00:33:28;;;;;;;4.80;2.40;;;21.80;99.90;;;;;;5077676;28;20443;-79
2022/07/31 00:35:56;;;;;;;5.60;2.07;;;21.80;99.90;;;;;;5077055;28;20530;-79
2022/07/31 00:38:24;;;;;;;3.70;1.93;;;21.70;99.90;;;;;;5076956;28;20481;-78
2022/07/31 00:40:51;;;;;;;4.27;2.20;;;21.70;99.90;;;;;;5075134;28;20475;-79
2022/07/31 00:43:18;;;;;;;3.70;1.80;;;21.70;99.90;;;;;;5074540;28;20530;-80
2022/07/31 00:45:45;;;;;;;3.23;1.80;;;21.70;99.90;;;;;;5076218;28;20447;-78
2022/07/31 00:48:12;;;;;;;2.83;1.57;;;21.60;99.90;;;;;;5075642;28;20443;-79
2022/07/31 00:50:39;;;;;;;2.60;1.60;;;21.60;99.90;;;;;;5075662;28;20540;-80
2022/07/31 00:53:07;;;;;;;2.57;1.63;;;21.50;99.90;;;;;;5077072;28;20910;-80
2022/07/31 00:55:34;;;;;;;4.57;2.50;;;21.50;99.90;;;;;;5077021;28;20474;-80
2022/07/31 00:58:01;;;;;;;5.47;2.43;;;21.50;99.90;;;;;;5077251;28;20473;-78
2022/07/31 01:00:28;;;;;;;2.90;1.50;;;21.40;99.90;;;;;;5076822;28;20530;-80
2022/07/31 01:02:55;;;;;;;5.17;1.70;;;21.30;99.90;;;;;;5075529;28;20534;-79
2022/07/31 01:05:22;;;;;;;7.53;1.80;;;21.20;99.90;;;;;;5076873;28;20981;-79
2022/07/31 01:07:49;;;;;;;4.77;1.80;;;21.20;99.90;;;;;;5076634;28;20547;-80
2022/07/31 01:10:29;;;;;;;5.33;1.77;;;21.20;99.90;;;;;;5076846;28;20575;-79
2022/07/31 01:13:01;;;;;;;2.83;1.47;;;21.10;99.90;;;;;;5076358;28;20533;-79
2022/07/31 01:15:29;;;;;;;4.63;1.80;;;21.00;99.90;;;;;;5076684;28;20518;-79
2022/07/31 01:17:58;;;;;;;3.07;1.83;;;21.00;99.90;;;;;;5076607;28;20545;-81
2022/07/31 01:20:26;;;;;;;6.30;1.93;;;21.00;99.90;;;;;;5076094;28;20590;-80
2022/07/31 01:23:12;;;;;;;2.67;1.50;;;20.90;99.90;;;;;;5076440;28;20534;-79
2022/07/31 01:25:48;;;;;;;3.63;1.60;;;20.80;99.90;;;;;;5077264;28;20518;-80
2022/07/31 01:28:30;;;;;;;3.10;1.70;;;20.80;99.90;;;;;;5078194;28;20458;-81
2022/07/31 01:31:09;;;;;;;3.97;1.80;;;20.70;99.90;;;;;;5076147;28;20851;-80
2022/07/31 01:33:46;;;;;;;6.10;1.90;;;20.70;99.90;;;;;;5076208;28;20443;-80
2022/07/31 01:36:19;;;;;;;3.53;1.50;;;20.70;99.90;;;;;;5076880;28;20534;-80
2022/07/31 01:38:49;;;;;;;2.30;1.40;;;20.60;99.90;;;;;;5077467;28;20982;-81
2022/07/31 01:41:20;;;;;;;4.40;1.60;;;20.60;99.90;;;;;;5076974;28;20465;-81
2022/07/31 01:43:51;;;;;;;2.50;1.53;;;20.60;99.90;;;;;;5080067;28;20487;-81
2022/07/31 01:46:21;;;;;;;4.90;1.80;;;20.50;99.90;;;;;;5081758;28;20525;-81
2022/07/31 01:48:49;;;;;;;3.40;1.57;;;20.50;99.90;;;;;;5081530;28;21013;-81
2022/07/31 01:51:18;;;;;;;3.50;1.60;;;20.50;99.90;;;;;;5080995;28;20569;-80
2022/07/31 01:53:47;;;;;;;4.00;1.83;;;20.40;99.90;;;;;;5080211;28;20561;-81
2022/07/31 01:56:18;;;;;;;3.17;1.73;;;20.40;99.90;;;;;;5081567;28;20453;-81
2022/07/31 01:58:48;;;;;;;3.20;1.47;;;20.40;99.90;;;;;;5082093;28;20447;-81
2022/07/31 02:01:15;;;;;;;4.03;1.73;;;20.40;99.90;;;;;;5082011;28;20482;-81
2022/07/31 02:03:45;;;;;;;2.73;1.77;;;20.40;99.90;;;;;;5082524;28;20808;-81
2022/07/31 02:06:13;;;;;;;4.30;2.00;;;20.40;99.90;;;;;;5096281;28;20450;-81
2022/07/31 02:08:42;;;;;;;2.90;1.80;;;20.40;99.90;;;;;;5081013;28;20863;-82
2022/07/31 02:11:09;;;;;;;4.23;1.67;;;20.40;99.90;;;;;;5080343;28;20997;-81
2022/07/31 02:13:37;;;;;;;3.83;1.90;;;20.30;99.90;;;;;;5080496;28;20493;-81
2022/07/31 02:16:04;;;;;;;2.90;1.90;;;20.30;99.90;;;;;;5079873;28;21026;-81
2022/07/31 02:18:32;;;;;;;3.20;2.00;;;20.20;99.90;;;;;;5078963;28;20450;-81
2022/07/31 02:21:01;;;;;;;3.40;2.10;;;20.30;99.90;;;;;;5080128;28;20486;-81
2022/07/31 02:23:28;;;;;;;3.43;1.73;;;20.30;99.90;;;;;;5079797;28;20455;-80
2022/07/31 02:25:55;;;;;;;3.70;2.50;;;20.30;99.90;;;;;;5091787;28;20458;-80
2022/07/31 02:28:22;;;;;;;3.97;1.90;;;20.20;99.90;;;;;;5095495;28;20481;-79
2022/07/31 02:30:51;;;;;;;4.57;1.67;;;20.20;99.90;;;;;;5093895;28;20521;-79
2022/07/31 02:33:20;;;;;;;2.90;1.87;;;20.20;99.90;;;;;;5093592;28;20471;-81
2022/07/31 02:35:50;;;;;;;3.43;1.80;;;20.20;99.90;;;;;;5083609;28;20458;-80
2022/07/31 02:38:20;;;;;;;2.77;1.40;;;20.10;99.90;;;;;;5080803;28;20450;-81
2022/07/31 02:40:49;;;;;;;3.60;1.90;;;20.10;99.90;;;;;;5081265;28;20509;-80
2022/07/31 02:43:16;;;;;;;5.23;2.13;;;20.10;99.90;;;;;;5080840;28;20455;-81
2022/07/31 02:45:44;;;;;;;4.00;2.17;;;20.10;99.90;;;;;;5081767;28;20469;-81
2022/07/31 02:48:11;;;;;;;2.90;1.60;;;20.10;99.90;;;;;;5081312;28;20451;-80
2022/07/31 02:50:38;;;;;;;2.93;2.20;;;20.10;99.90;;;;;;5080856;28;21036;-80
2022/07/31 02:53:06;;;;;;;4.80;2.00;;;20.00;99.90;;;;;;5079202;28;20496;-80
2022/07/31 02:55:35;;;;;;;4.20;2.03;;;20.10;99.90;;;;;;5080536;28;20532;-80
2022/07/31 02:58:03;;;;;;;3.00;1.70;;;20.00;99.90;;;;;;5081464;28;20942;-80
2022/07/31 03:00:29;;;;;;;5.20;2.20;;;20.00;99.90;;;;;;5079187;28;20467;-80
2022/07/31 03:02:56;;;;;;;3.07;1.90;;;19.90;99.90;;;;;;5079741;28;20467;-80
2022/07/31 03:05:23;;;;;;;3.00;1.80;;;20.00;99.90;;;;;;5080541;28;20534;-80
2022/07/31 03:07:50;;;;;;;5.70;2.37;;;19.90;99.90;;;;;;5079789;28;20455;-79
2022/07/31 03:10:17;;;;;;;4.33;2.03;;;19.90;99.90;;;;;;5080213;28;20509;-80
2022/07/31 03:12:48;;;;;;;3.03;2.10;;;19.90;99.90;;;;;;5078569;28;20443;-79
2022/07/31 03:15:17;;;;;;;4.77;1.83;;;19.90;99.90;;;;;;5079271;28;20449;-80
2022/07/31 03:17:46;;;;;;;3.93;2.10;;;19.90;99.90;;;;;;5080186;28;20876;-80
2022/07/31 03:20:14;;;;;;;2.67;1.80;;;19.90;99.90;;;;;;5079746;28;20459;-79
2022/07/31 03:22:42;;;;;;;7.60;2.30;;;19.90;99.90;;;;;;5079412;28;20451;-80
2022/07/31 03:25:12;;;;;;;3.60;2.70;;;19.90;99.90;;;;;;5077879;28;20577;-79
2022/07/31 03:27:39;;;;;;;4.67;2.00;;;19.90;99.90;;;;;;5079635;28;20438;-80
2022/07/31 03:30:17;;;;;;;5.77;3.00;;;19.90;99.90;;;;;;5078435;28;20569;-81
2022/07/31 03:32:44;;;;;;;4.27;2.00;;;19.80;99.90;;;;;;5079082;28;20461;-80
2022/07/31 03:35:11;;;;;;;3.43;2.37;;;19.90;99.90;;;;;;5077824;28;20443;-79
2022/07/31 03:37:37;;;;;;;3.80;1.90;;;19.90;99.90;;;;;;5077800;28;20457;-81
2022/07/31 03:40:05;;;;;;;3.30;2.00;;;19.90;99.90;;;;;;5073995;28;21018;-80
2022/07/31 03:42:32;;;;;;;3.40;1.97;;;19.90;99.90;;;;;;5078996;28;20462;-81
2022/07/31 03:45:00;;;;;;;5.70;2.40;;;19.90;99.90;;;;;;5078213;28;21018;-80
2022/07/31 03:47:28;;;;;;;3.87;2.10;;;19.90;99.90;;;;;;5078209;28;20875;-81
2022/07/31 03:49:55;;;;;;;3.90;2.10;;;19.90;99.90;;;;;;5059834;28;20484;-80
2022/07/31 03:52:23;;;;;;;2.90;1.97;;;19.90;99.90;;;;;;5076414;28;20443;-79
2022/07/31 03:54:49;;;;;;;3.77;2.10;;;19.90;99.90;;;;;;5080676;28;20446;-80
2022/07/31 03:57:17;;;;;;;3.30;2.40;;;19.90;99.90;;;;;;5079136;28;20490;-83
2022/07/31 03:59:46;;;;;;;4.03;2.40;;;19.90;99.90;;;;;;5071232;28;20471;-81
2022/07/31 04:02:13;;;;;;;4.30;2.10;;;19.90;99.90;;;;;;5079821;28;20526;-80
2022/07/31 04:04:42;;;;;;;3.60;2.03;;;19.90;99.90;;;;;;5080085;28;20533;-81
2022/07/31 04:07:09;;;;;;;3.83;2.70;;;19.90;99.90;;;;;;5083378;28;20481;-81
2022/07/31 04:09:37;;;;;;;4.30;2.40;;;20.00;99.90;;;;;;5097870;28;20438;-80
2022/07/31 04:12:04;;;;;;;5.03;2.23;;;20.00;99.90;;;;;;5080503;28;20478;-80
2022/07/31 04:14:34;;;;;;;4.10;2.50;;;20.00;99.90;;;;;;5078262;28;20458;-81
2022/07/31 04:17:01;;;;;;;3.80;2.23;;;20.10;99.90;;;;;;5079942;28;20478;-81
2022/07/31 04:19:29;;;;;;;3.70;2.00;;;20.10;99.90;;;;;;5079821;28;20807;-81
2022/07/31 04:21:58;;;;;;;3.70;2.33;;;20.10;99.90;;;;;;5080294;28;20451;-81
2022/07/31 04:24:24;;;;;;;3.13;2.03;;;20.10;99.90;;;;;;5079347;28;20450;-78
2022/07/31 04:26:51;;;;;;;3.60;2.37;;;20.20;99.90;;;;;;5078896;28;20818;-80
2022/07/31 04:29:18;;;;;;;4.03;2.27;;;20.20;99.90;;;;;;5080852;28;20474;-81
2022/07/31 04:31:45;;;;;;;3.70;2.50;;;20.20;99.90;;;;;;5080222;28;20490;-80
2022/07/31 04:34:12;;;;;;;3.23;2.40;;;20.30;99.90;;;;;;5079031;28;20538;-80
2022/07/31 04:36:39;;;;;;;4.30;2.47;;;20.30;99.90;;;;;;5079866;28;20450;-80
2022/07/31 04:39:07;;;;;;;3.00;2.13;;;20.20;99.90;;;;;;5079467;28;20439;-81
2022/07/31 04:41:34;;;;;;;4.20;2.43;;;20.20;99.90;;;;;;5078624;28;20463;-80
2022/07/31 04:44:01;;;;;;;5.20;1.80;;;20.20;99.90;;;;;;5078764;28;20454;-80
2022/07/31 04:46:28;;;;;;;2.90;1.73;;;20.20;99.90;;;;;;5078786;28;20549;-80
2022/07/31 04:48:54;;;;;;;7.00;2.17;;;20.20;99.90;;;;;;5078152;28;20518;-80
2022/07/31 04:51:23;;;;;;;5.67;2.00;;;20.30;99.90;;;;;;5076601;28;20491;-81
2022/07/31 04:53:51;;;;;;;3.27;1.90;;;20.40;99.90;;;;;;5078549;28;20439;-81
2022/07/31 04:56:36;;;;;;;5.33;2.00;;;20.50;99.90;;;;;;5083317;28;20489;-82
2022/07/31 04:59:05;;;;;;;3.20;2.17;;;20.50;99.90;;;;;;5076997;28;20443;-80
2022/07/31 05:01:32;;;;;;;3.30;1.80;;;20.60;99.90;;;;;;5075876;28;20470;-81
2022/07/31 05:03:59;;;;;;;3.47;2.07;;;20.60;99.90;;;;;;5075929;28;20553;-80
2022/07/31 05:06:36;;;;;;;4.27;1.93;;;20.60;99.90;;;;;;5077243;28;20446;-81
2022/07/31 05:09:05;;;;;;;11.77;2.30;;;20.70;99.90;;;;;;5077594;28;20447;-82
2022/07/31 05:11:34;;;;;;;3.23;1.97;;;20.60;99.90;;;;;;5076869;28;20478;-79
2022/07/31 05:14:02;;;;;;;4.63;2.17;;;20.70;99.90;;;;;;5076068;28;20546;-81
2022/07/31 05:16:30;;;;;;;2.77;1.87;;;20.80;99.90;;;;;;5076625;28;20494;-81
2022/07/31 05:18:58;;;;;;;3.40;2.00;;;20.90;99.90;;;;;;5074963;28;20455;-80
2022/07/31 05:21:26;;;;;;;4.10;2.13;;;20.90;99.90;;;;;;5074960;28;20479;-81
2022/07/31 05:23:54;;;;;;;4.00;2.40;;;21.00;99.90;;;;;;5074477;28;20458;-81
2022/07/31 05:26:21;;;;;;;3.97;2.00;;;21.00;99.90;;;;;;5075532;28;20531;-81
2022/07/31 05:28:50;;;;;;;3.50;2.50;;;21.10;99.90;;;;;;5075811;28;20474;-80
2022/07/31 05:31:18;;;;;;;8.70;3.00;;;21.20;99.90;;;;;;5075006;28;20506;-81
2022/07/31 05:33:46;;;;;;;5.47;2.07;;;21.30;99.90;;;;;;5073119;28;20451;-81
2022/07/31 05:36:14;;;;;;;3.67;2.10;;;21.30;99.90;;;;;;5075419;28;20545;-81
2022/07/31 05:38:41;;;;;;;2.83;1.93;;;21.20;99.90;;;;;;5075381;28;20459;-81
2022/07/31 05:41:08;;;;;;;4.00;1.90;;;21.30;99.90;;;;;;5075372;28;20526;-81
2022/07/31 05:43:35;;;;;;;3.87;2.57;;;21.20;99.90;;;;;;5075245;28;20539;-79
2022/07/31 05:46:04;;;;;;;4.97;2.00;;;21.20;99.90;;;;;;5082045;28;20516;-82
2022/07/31 05:48:31;;;;;;;5.90;2.37;;;21.30;99.90;;;;;;5085774;28;20508;-81
2022/07/31 05:50:58;;;;;;;3.43;2.00;;;21.30;99.90;;;;;;5078762;28;20561;-81
2022/07/31 05:53:25;;;;;;;4.00;2.00;;;21.40;99.90;;;;;;5075911;28;20475;-78
2022/07/31 05:55:52;;;;;;;5.47;2.77;;;21.30;99.90;;;;;;5076421;28;20447;-81
2022/07/31 05:58:20;;;;;;;4.40;2.00;;;21.30;99.90;;;;;;5076947;28;20502;-82
2022/07/31 06:00:48;;;;;;;5.17;2.03;;;21.30;99.90;;;;;;5077444;28;20900;-81
2022/07/31 06:03:22;;;;;;;5.23;2.27;;;21.30;99.90;;;;;;5076923;28;20516;-82
2022/07/31 06:05:50;;;;;;;3.13;2.13;;;21.40;99.90;;;;;;5079013;28;20792;-82
2022/07/31 06:08:17;;;;;;;4.13;2.70;;;21.30;99.90;;;;;;5079651;28;20807;-82
2022/07/31 06:10:44;;;;;;;3.83;2.60;;;21.20;99.90;;;;;;5086009;28;20982;-82
2022/07/31 06:13:13;;;;;;;4.77;2.77;;;21.30;99.90;;;;;;5087639;28;20443;-80
2022/07/31 06:15:40;;;;;;;4.50;2.80;;;21.30;99.90;;;;;;5078855;28;20526;-81
2022/07/31 06:18:08;;;;;;;7.73;3.03;;;21.40;99.90;;;;;;5078360;28;20574;-82
2022/07/31 06:20:36;;;;;;;5.17;2.43;;;21.40;99.90;;;;;;5079642;28;20550;-81
2022/07/31 06:23:03;;;;;;;6.17;3.23;;;21.30;99.90;;;;;;5078321;28;20725;-81
2022/07/31 06:25:29;;;;;;;6.03;3.00;;;21.30;99.90;;;;;;5079000;28;20455;-82
2022/07/31 06:27:56;;;;;;;7.40;3.70;;;21.30;99.90;;;;;;5078044;28;20453;-83
2022/07/31 06:30:23;;;;;;;4.40;2.93;;;21.10;99.90;;;;;;5082902;28;20514;-83
2022/07/31 06:32:50;;;;;;;5.83;3.07;;;21.20;99.90;;;;;;5081683;28;20502;-81
2022/07/31 06:35:17;;;;;;;7.20;3.20;;;21.30;99.90;;;;;;5082918;28;20458;-81
2022/07/31 06:37:45;;;;;;;6.50;3.20;;;21.40;99.90;;;;;;5081422;28;20872;-82
2022/07/31 06:40:13;;;;;;;4.60;3.10;;;21.60;99.90;;;;;;5081640;28;20905;-81
2022/07/31 06:42:40;;;;;;;8.00;3.47;;;21.70;99.90;;;;;;5082414;28;20443;-82
2022/07/31 06:45:08;;;;;;;7.43;3.20;;;21.60;99.90;;;;;;5078900;28;20461;-81
2022/07/31 06:47:35;;;;;;;6.13;3.37;;;21.70;99.90;;;;;;5078756;28;20451;-79
2022/07/31 06:50:03;;;;;;;8.30;4.00;;;21.60;99.90;;;;;;5080764;28;20483;-81
2022/07/31 06:52:30;;;;;;;6.20;3.53;;;21.70;99.90;;;;;;5081532;28;20485;-82
2022/07/31 06:54:59;;;;;;;6.10;3.23;;;21.70;99.90;;;;;;5079638;28;20427;-83
2022/07/31 06:57:26;;;;;;;5.93;4.07;;;21.80;99.90;;;;;;5080515;28;20482;-81
2022/07/31 06:59:53;;;;;;;5.47;2.83;;;21.70;99.90;;;;;;5081004;28;20534;-81
2022/07/31 07:02:20;;;;;;;6.63;4.03;;;21.70;99.90;;;;;;5079415;28;20447;-81
2022/07/31 07:04:47;;;;;;;8.70;4.80;;;21.90;99.90;;;;;;5076080;28;20459;-80
2022/07/31 07:07:14;;;;;;;8.73;4.00;;;21.70;99.90;;;;;;5076310;28;20524;-79
2022/07/31 07:09:41;;;;;;;4.93;3.90;;;21.70;99.90;;;;;;5077527;28;20546;-80
2022/07/31 07:12:10;;;;;;;5.63;4.13;;;21.90;99.90;;;;;;5071246;28;20481;-80
2022/07/31 07:14:37;;;;;;;7.40;4.13;;;21.90;99.90;;;;;;5074371;28;20573;-81
2022/07/31 07:17:04;;;;;;;7.47;4.53;;;22.00;99.90;;;;;;5074334;28;20518;-81
2022/07/31 07:19:32;;;;;;;6.93;4.37;;;22.00;99.90;;;;;;5076564;28;20934;-82
2022/07/31 07:21:58;;;;;;;7.47;4.70;;;22.00;99.90;;;;;;5079381;28;20494;-81
2022/07/31 07:24:25;;;;;;;6.37;4.73;;;22.00;99.90;;;;;;5077732;28;20473;-82
2022/07/31 07:26:52;;;;;;;6.17;3.50;;;22.10;99.90;;;;;;5075993;28;20466;-82
2022/07/31 07:29:20;;;;;;;7.27;3.27;;;22.10;99.90;;;;;;5075503;28;20503;-83
2022/07/31 07:31:47;;;;;;;4.93;3.40;;;22.20;99.90;;;;;;5079503;28;20546;-81
2022/07/31 07:34:14;;;;;;;5.20;3.20;;;22.20;99.90;;;;;;5081215;28;20527;-81
2022/07/31 07:36:41;;;;;;;8.40;3.90;;;22.20;99.90;;;;;;5078724;28;20465;-82
2022/07/31 07:39:09;;;;;;;5.00;3.27;;;22.30;99.90;;;;;;5078973;28;20538;-82
2022/07/31 07:41:37;;;;;;;5.67;3.60;;;22.20;99.90;;;;;;5078843;28;20455;-80
2022/07/31 07:44:05;;;;;;;9.00;3.90;;;22.10;99.90;;;;;;5078877;28;20451;-80
2022/07/31 07:46:33;;;;;;;5.00;3.53;;;21.90;99.90;;;;;;5078857;28;21017;-79
2022/07/31 07:49:01;;;;;;;7.43;3.63;;;22.10;99.90;;;;;;5079048;28;20450;-82
2022/07/31 07:51:27;;;;;;;4.73;3.00;;;22.10;99.90;;;;;;5078715;28;20562;-82
2022/07/31 07:53:54;;;;;;;7.07;3.27;;;22.10;99.90;;;;;;5081129;28;20924;-81
2022/07/31 07:56:21;;;;;;;9.73;3.37;;;22.20;99.90;;;;;;5077544;28;20896;-81
2022/07/31 07:58:48;;;;;;;7.40;3.10;;;22.20;99.90;;;;;;5077247;28;20463;-80
2022/07/31 08:01:16;;;;;;;5.07;2.97;;;22.50;99.90;;;;;;5077833;28;20475;-81
2022/07/31 08:03:44;;;;;;;5.87;2.47;;;22.60;99.90;;;;;;5077384;28;20835;-81
2022/07/31 08:06:11;;;;;;;8.20;3.10;;;22.50;99.90;;;;;;5075986;28;20520;-80
2022/07/31 08:08:38;;;;;;;4.83;2.50;;;22.60;99.90;;;;;;5079843;28;20519;-81
2022/07/31 08:11:05;;;;;;;5.23;2.90;;;22.80;99.90;;;;;;5079615;28;20491;-80
2022/07/31 08:13:32;;;;;;;2.87;1.90;;;22.80;99.90;;;;;;5091799;28;20486;-81
2022/07/31 08:15:59;;;;;;;3.50;1.90;;;22.60;99.90;;;;;;5080373;28;20483;-79
2022/07/31 08:18:25;;;;;;;5.60;2.20;;;22.50;99.90;;;;;;5065871;28;20458;-81
2022/07/31 08:20:54;;;;;;;3.23;1.73;;;22.50;99.90;;;;;;5074575;28;21014;-80
2022/07/31 08:23:21;;;;;;;3.57;1.40;;;22.50;99.90;;;;;;5075576;28;20462;-81
2022/07/31 08:25:47;;;;;;;5.17;1.80;;;22.60;99.90;;;;;;5076037;28;20512;-79
2022/07/31 08:28:14;;;;;;;2.90;1.93;;;22.40;99.90;;;;;;5074449;28;20490;-78
2022/07/31 08:30:41;;;;;;;6.97;1.90;;;22.40;99.90;;;;;;5075479;28;20550;-79
2022/07/31 08:33:08;;;;;;;3.10;1.70;;;22.50;99.90;;;;;;5074620;28;20522;-81
2022/07/31 08:35:35;;;;;;;3.20;1.80;;;22.50;99.90;;;;;;5055593;28;20502;-80
2022/07/31 08:38:06;;;;;;;3.40;1.70;;;22.40;99.90;;;;;;5066803;28;20447;-79
2022/07/31 08:40:33;;;;;;;2.60;1.77;;;22.50;99.90;;;;;;5074984;28;20483;-81
2022/07/31 08:43:00;;;;;;;3.00;1.53;;;22.30;99.90;;;;;;5073676;28;20458;-79
2022/07/31 08:45:29;;;;;;;4.97;1.43;;;22.00;99.90;;;;;;5075291;28;20505;-78
2022/07/31 08:48:03;;;;;;;4.10;1.40;;;22.00;99.90;;;;;;5075042;28;20542;-78
2022/07/31 08:50:30;;;;;;;3.53;1.50;;;22.00;99.90;;;;;;5074880;28;20489;-82
2022/07/31 08:52:59;;;;;;;3.60;1.60;;;22.20;99.90;;;;;;5073373;28;20566;-80
2022/07/31 08:55:30;;;;;;;2.97;1.47;;;22.20;99.90;;;;;;5070232;28;20462;-81
2022/07/31 08:57:57;;;;;;;2.90;1.47;;;22.20;99.90;;;;;;5075574;28;20483;-81
2022/07/31 09:00:24;;;;;;;2.53;1.17;;;21.80;99.90;;;;;;5075521;28;20550;-80
2022/07/31 09:02:53;;;;;;;4.53;1.50;;;21.80;99.90;;;;;;5074812;28;20486;-81
2022/07/31 09:05:23;;;;;;;3.63;1.73;;;22.00;99.90;;;;;;5074373;28;20823;-81
2022/07/31 09:07:53;;;;;;;3.23;1.53;;;22.20;99.90;;;;;;5074445;28;20451;-79
2022/07/31 09:10:22;;;;;;;2.73;1.60;;;22.30;99.90;;;;;;5074149;28;20479;-83
2022/07/31 09:12:50;;;;;;;3.20;1.33;;;22.40;99.90;;;;;;5070409;28;20486;-80
2022/07/31 09:15:23;;;;;;;3.53;1.73;;;22.50;99.90;;;;;;5074354;28;20454;-81
2022/07/31 09:17:50;;;;;;;4.23;1.87;;;22.40;99.90;;;;;;5068571;28;20454;-81
2022/07/31 09:20:19;;;;;;;3.40;1.67;;;22.30;99.90;;;;;;5074022;28;20482;-82
2022/07/31 09:22:47;;;;;;;4.03;1.80;;;22.40;99.90;;;;;;5075023;28;20454;-80
2022/07/31 09:25:19;;;;;;;3.10;1.60;;;22.30;99.90;;;;;;5074040;28;20442;-83
2022/07/31 09:27:46;;;;;;;6.10;1.87;;;22.20;99.90;;;;;;5070927;28;20846;-82
2022/07/31 09:30:15;;;;;;;2.70;1.73;;;22.30;99.90;;;;;;5074580;28;20482;-83
2022/07/31 09:32:44;;;;;;;3.33;1.90;;;22.40;99.90;;;;;;5074948;28;20990;-82
2022/07/31 09:35:13;;;;;;;3.03;1.83;;;22.40;99.90;;;;;;5074268;28;20899;-78
2022/07/31 09:37:40;;;;;;;3.13;1.60;;;22.60;99.90;;;;;;5073032;28;20497;-80
2022/07/31 09:40:09;;;;;;;3.00;1.60;;;22.70;99.90;;;;;;5074328;28;20912;-81
2022/07/31 09:42:38;;;;;;;2.50;1.47;;;22.60;99.90;;;;;;5073718;28;20454;-80
2022/07/31 09:45:18;;;;;;;4.30;1.13;;;22.90;99.90;;;;;;5071951;28;20824;-80
2022/07/31 09:47:46;;;;;;;4.77;1.77;;;23.10;99.90;;;;;;5076051;28;20431;-83
2022/07/31 09:50:13;;;;;;;4.87;1.60;;;22.90;99.90;;;;;;5078534;28;20478;-81
2022/07/31 09:52:40;;;;;;;3.07;1.30;;;22.80;99.90;;;;;;5078504;28;20577;-80
2022/07/31 09:55:09;;;;;;;3.40;1.80;;;22.80;99.90;;;;;;5073170;28;20539;-81
2022/07/31 09:57:38;;;;;;;2.90;1.20;;;22.90;99.90;;;;;;5074748;28;20462;-78
2022/07/31 10:00:07;;;;;;;2.50;1.57;;;22.90;99.90;;;;;;5072356;28;20475;-78
2022/07/31 10:02:38;;;;;;;3.33;1.80;;;22.90;99.90;;;;;;5073554;28;20443;-79
2022/07/31 10:05:10;;;;;;;3.27;1.87;;;22.90;99.90;;;;;;5076930;28;20523;-78
2022/07/31 10:07:38;;;;;;;2.43;1.43;;;23.10;99.90;;;;;;5077675;28;20431;-80
2022/07/31 10:10:07;;;;;;;3.20;1.40;;;23.10;99.90;;;;;;5078089;28;20541;-80
2022/07/31 10:12:39;;;;;;;3.90;1.90;;;23.30;99.90;;;;;;5096651;28;20548;-80
2022/07/31 10:15:11;;;;;;;4.67;1.67;;;23.10;99.90;;;;;;5094269;28;20729;-79
2022/07/31 10:17:43;;;;;;;2.80;1.57;;;23.10;99.90;;;;;;5078034;28;20447;-78
2022/07/31 10:20:17;;;;;;;4.20;1.80;;;23.10;99.90;;;;;;5076251;28;20509;-79
2022/07/31 10:22:47;;;;;;;3.07;1.83;;;23.20;99.90;;;;;;5074531;28;20539;-79
2022/07/31 10:25:19;;;;;;;3.17;1.40;;;23.20;99.90;;;;;;5076164;28;20914;-80
2022/07/31 10:27:47;;;;;;;3.53;1.90;;;23.00;99.90;;;;;;5075822;28;20458;-80
2022/07/31 10:30:14;;;;;;;3.83;1.60;;;22.80;99.90;;;;;;5077036;28;20482;-80
2022/07/31 10:32:43;;;;;;;2.57;1.40;;;22.90;99.90;;;;;;5077129;28;20510;-79
2022/07/31 10:35:10;;;;;;;4.53;1.53;;;23.00;99.90;;;;;;5072860;28;20881;-80
2022/07/31 10:37:42;;;;;;;3.90;2.30;;;23.30;99.90;;;;;;5078090;28;21062;-80
2022/07/31 10:40:23;;;;;;;2.80;1.53;;;23.40;99.90;;;;;;5077634;28;20549;-80
2022/07/31 10:43:00;;;;;;;5.57;2.10;;;23.80;99.90;;;;;;5078099;28;20469;-80
2022/07/31 10:45:30;;;;;;;4.40;1.73;;;24.00;99.90;;;;;;5086130;28;20443;-79
2022/07/31 10:48:01;;;;;;;3.63;1.77;;;24.10;99.90;;;;;;5088297;28;20475;-79
2022/07/31 10:50:29;;;;;;;5.50;1.70;;;24.30;99.90;;;;;;5082892;28;20485;-79
2022/07/31 10:53:07;;;;;;;3.43;1.70;;;24.40;99.90;;;;;;5081204;28;20490;-79
2022/07/31 10:55:34;;;;;;;4.97;1.90;;;24.30;99.90;;;;;;5076343;28;20446;-83
2022/07/31 10:58:08;;;;;;;2.53;1.63;;;24.40;99.90;;;;;;5075856;28;20491;-78
2022/07/31 11:00:35;;;;;;;3.70;1.90;;;24.30;99.90;;;;;;5073940;28;20466;-82
2022/07/31 11:03:17;;;;;;;2.90;1.57;;;24.30;99.90;;;;;;5073755;28;20442;-79
2022/07/31 11:05:55;;;;;;;4.93;1.93;;;24.40;99.90;;;;;;5075157;28;20443;-80
2022/07/31 11:08:22;;;;;;;3.07;1.80;;;24.40;99.90;;;;;;5077390;28;20831;-80
2022/07/31 11:10:50;;;;;;;8.70;2.00;;;24.90;99.90;;;;;;5075438;28;20478;-78
2022/07/31 11:13:17;;;;;;;3.43;1.60;;;25.40;99.90;;;;;;5076847;28;20482;-80
2022/07/31 11:15:44;;;;;;;3.87;1.83;;;25.40;99.90;;;;;;5076211;28;20982;-80
2022/07/31 11:18:19;;;;;;;3.30;1.90;;;25.00;99.90;;;;;;5077104;28;21058;-80
2022/07/31 11:20:46;;;;;;;3.40;1.80;;;25.00;99.90;;;;;;5079287;28;20478;-81
2022/07/31 11:23:17;;;;;;;2.47;1.50;;;24.50;99.90;;;;;;5072719;28;20466;-79
2022/07/31 11:25:46;;;;;;;3.90;1.53;;;24.50;99.90;;;;;;5075479;28;20431;-78
2022/07/31 11:28:20;;;;;;;4.10;2.10;;;24.40;99.90;;;;;;5078004;28;20534;-81
2022/07/31 11:30:51;;;;;;;7.60;2.67;;;24.30;99.90;;;;;;5066718;28;20851;-80
2022/07/31 11:33:34;;;;;;;3.20;1.83;;;24.30;99.90;;;;;;5076795;28;21007;-81
2022/07/31 11:36:09;;;;;;;4.20;1.67;;;24.30;99.90;;;;;;5078700;28;20447;-79
2022/07/31 11:38:37;;;;;;;3.87;1.83;;;24.30;99.90;;;;;;5079585;28;20512;-80
2022/07/31 11:41:05;;;;;;;3.60;2.03;;;24.30;99.90;;;;;;5079607;28;20510;-81
2022/07/31 11:43:33;;;;;;;3.47;2.57;;;24.10;99.90;;;;;;5078697;28;20496;-82
2022/07/31 11:46:01;;;;;;;3.70;2.23;;;24.30;99.90;;;;;;5079925;28;21041;-82
2022/07/31 11:48:31;;;;;;;6.80;2.40;;;24.40;99.90;;;;;;5079054;28;20461;-82
2022/07/31 11:51:02;;;;;;;4.10;2.00;;;24.40;99.90;;;;;;5078773;28;20538;-82
2022/07/31 11:53:31;;;;;;;6.20;2.87;;;24.50;99.90;;;;;;5078481;28;20487;-81
2022/07/31 11:56:01;;;;;;;4.10;2.13;;;24.20;99.90;;;;;;5079542;28;20446;-79
2022/07/31 11:58:29;;;;;;;5.33;2.63;;;24.40;99.90;;;;;;5078475;28;20537;-79
2022/07/31 12:01:06;;;;;;;4.50;2.43;;;24.10;99.90;;;;;;5078253;28;20891;-80
2022/07/31 12:03:37;;;;;;;4.07;2.50;;;24.00;99.90;;;;;;5075988;28;20459;-79
2022/07/31 12:06:05;;;;;;;6.93;2.20;;;24.10;99.90;;;;;;5078020;28;20474;-79
2022/07/31 12:08:33;;;;;;;6.27;2.90;;;24.10;99.90;;;;;;5079553;28;20461;-79
2022/07/31 12:11:02;;;;;;;4.60;2.40;;;24.30;99.90;;;;;;5079398;28;20482;-78
2022/07/31 12:13:30;;;;;;;4.27;2.53;;;24.10;99.90;;;;;;5082449;28;20525;-79
2022/07/31 12:15:59;;;;;;;4.10;2.20;;;24.00;99.90;;;;;;5081943;28;20444;-79
2022/07/31 12:18:27;;;;;;;3.53;2.50;;;23.90;99.90;;;;;;5077509;28;20529;-81
2022/07/31 12:20:57;;;;;;;3.40;2.30;;;23.60;99.90;;;;;;5080002;28;20471;-81
2022/07/31 12:23:25;;;;;;;4.30;2.80;;;23.80;99.90;;;;;;5081017;28;20497;-78
2022/07/31 12:25:52;;;;;;;6.00;3.40;;;23.70;99.90;;;;;;5081638;28;20546;-80
2022/07/31 12:28:19;;;;;;;4.50;2.40;;;23.80;99.90;;;;;;5074538;28;20455;-78
2022/07/31 12:30:57;;;;;;;3.67;1.70;;;23.80;99.90;;;;;;5074422;28;20561;-79
2022/07/31 12:33:26;;;;;;;6.73;2.60;;;23.90;99.90;;;;;;5074545;28;20568;-78
2022/07/31 12:35:55;;;;;;;3.47;2.40;;;24.00;99.90;;;;;;5075091;28;20455;-81
2022/07/31 12:38:26;;;;;;;4.70;2.13;;;24.30;99.90;;;;;;5077079;28;20459;-80
2022/07/31 12:41:03;;;;;;;3.80;1.97;;;24.60;99.90;;;;;;5078268;28;20503;-81
2022/07/31 12:43:30;;;;;;;3.90;2.40;;;24.70;99.90;;;;;;5073352;28;20461;-79
2022/07/31 12:45:59;;;;;;;10.50;3.30;;;25.20;99.90;;;;;;5074170;28;20534;-80
2022/07/31 12:48:26;;;;;;;3.93;2.20;;;25.40;99.90;;;;;;5078724;28;20545;-80
2022/07/31 12:50:54;;;;;;;4.57;2.10;;;25.10;99.90;;;;;;5080480;28;20978;-82
2022/07/31 12:53:21;;;;;;;3.30;1.90;;;25.20;99.90;;;;;;5076511;28;20513;-82
2022/07/31 12:55:49;;;;;;;3.93;2.70;;;25.40;99.90;;;;;;5071904;28;20496;-79